sensor_id;sensor_type;location;lat;lon;timestamp;pressure;altitude;pressure_sealevel;temperature;humidity
7670;BME280;3877;42.562;27.636;2022-07-17T00:00:27;101741.53;;;23.81;100.00
7670;BME280;3877;42.562;27.636;2022-07-17T00:02:54;101737.03;;;23.80;100.00
7670;BME280;3877;42.562;27.636;2022-07-17T00:05:21;101734.47;;;23.71;100.00
7670;BME280;3877;42.562;27.636;2022-07-17T00:07:48;101727.00;;;23.63;100.00
7670;BME280;3877;42.562;27.636;2022-07-17T00:10:16;101748.75;;;23.71;100.00
7670;BME280;3877;42.562;27.636;2022-07-17T00:12:43;101745.03;;;23.67;100.00
7670;BME280;3877;42.562;27.636;2022-07-17T00:15:12;101752.72;;;23.60;100.00
7670;BME280;3877;42.562;27.636;2022-07-17T00:17:40;101734.56;;;23.48;100.00
7670;BME280;3877;42.562;27.636;2022-07-17T00:20:08;101747.00;;;23.60;100.00
7670;BME280;3877;42.562;27.636;2022-07-17T00:22:35;101742.44;;;23.55;100.00
7670;BME280;3877;42.562;27.636;2022-07-17T00:25:03;101742.84;;;23.57;100.00
7670;BME280;3877;42.562;27.636;2022-07-17T00:27:31;101735.38;;;23.49;100.00
7670;BME280;3877;42.562;27.636;2022-07-17T00:29:58;101741.91;;;23.46;100.00
7670;BME280;3877;42.562;27.636;2022-07-17T00:32:28;101742.19;;;23.41;100.00
7670;BME280;3877;42.562;27.636;2022-07-17T00:34:55;101740.91;;;23.38;100.00
7670;BME280;3877;42.562;27.636;2022-07-17T00:37:22;101736.81;;;23.36;100.00
7670;BME280;3877;42.562;27.636;2022-07-17T00:39:50;101738.47;;;23.37;100.00
7670;BME280;3877;42.562;27.636;2022-07-17T00:42:17;101731.88;;;23.33;100.00
7670;BME280;3877;42.562;27.636;2022-07-17T00:44:45;101738.84;;;23.35;100.00
7670;BME280;3877;42.562;27.636;2022-07-17T00:47:13;101742.53;;;23.36;100.00
7670;BME280;3877;42.562;27.636;2022-07-17T00:49:42;101736.81;;;23.36;100.00
7670;BME280;3877;42.562;27.636;2022-07-17T00:52:10;101726.88;;;23.26;100.00
7670;BME280;3877;42.562;27.636;2022-07-17T00:54:39;101737.25;;;23.38;100.00
7670;BME280;3877;42.562;27.636;2022-07-17T00:57:08;101736.81;;;23.36;100.00
7670;BME280;3877;42.562;27.636;2022-07-17T00:59:36;101753.63;;;23.41;100.00
7670;BME280;3877;42.562;27.636;2022-07-17T01:02:06;101643.63;;;22.75;100.00
7670;BME280;3877;42.562;27.636;2022-07-17T01:04:34;101747.69;;;23.53;100.00
7670;BME280;3877;42.562;27.636;2022-07-17T01:07:04;101753.97;;;23.62;100.00
7670;BME280;3877;42.562;27.636;2022-07-17T01:09:31;101742.97;;;23.64;100.00
7670;BME280;3877;42.562;27.636;2022-07-17T01:11:59;101745.53;;;23.73;100.00
7670;BME280;3877;42.562;27.636;2022-07-17T01:14:27;101738.22;;;23.75;100.00
7670;BME280;3877;42.562;27.636;2022-07-17T01:16:54;101740.66;;;23.77;100.00
7670;BME280;3877;42.562;27.636;2022-07-17T01:19:21;101748.56;;;23.87;100.00
7670;BME280;3877;42.562;27.636;2022-07-17T01:21:50;101745.72;;;23.90;100.00
7670;BME280;3877;42.562;27.636;2022-07-17T01:24:17;101735.94;;;23.91;100.00
7670;BME280;3877;42.562;27.636;2022-07-17T01:26:47;101747.38;;;23.91;100.00
7670;BME280;3877;42.562;27.636;2022-07-17T01:29:16;101733.41;;;23.86;100.00
7670;BME280;3877;42.562;27.636;2022-07-17T01:31:44;101745.84;;;23.97;100.00
7670;BME280;3877;42.562;27.636;2022-07-17T01:34:12;101746.28;;;24.00;100.00
7670;BME280;3877;42.562;27.636;2022-07-17T01:36:40;101758.13;;;23.98;100.00
7670;BME280;3877;42.562;27.636;2022-07-17T01:39:09;101752.34;;;23.94;100.00
7670;BME280;3877;42.562;27.636;2022-07-17T01:41:36;101748.19;;;23.88;100.00
7670;BME280;3877;42.562;27.636;2022-07-17T01:44:04;101746.53;;;23.87;100.00
7670;BME280;3877;42.562;27.636;2022-07-17T01:46:32;101745.56;;;23.76;100.00
7670;BME280;3877;42.562;27.636;2022-07-17T01:48:59;101734.38;;;23.64;100.00
7670;BME280;3877;42.562;27.636;2022-07-17T01:51:28;101736.41;;;23.64;100.00
7670;BME280;3877;42.562;27.636;2022-07-17T01:53:55;101736.00;;;23.62;100.00
7670;BME280;3877;42.562;27.636;2022-07-17T01:56:24;101727.25;;;23.51;100.00
7670;BME280;3877;42.562;27.636;2022-07-17T01:58:52;101730.53;;;23.53;100.00
7670;BME280;3877;42.562;27.636;2022-07-17T02:01:19;101717.47;;;23.52;100.00
7670;BME280;3877;42.562;27.636;2022-07-17T02:03:46;101731.31;;;23.50;100.00
7670;BME280;3877;42.562;27.636;2022-07-17T02:06:13;101726.44;;;23.50;100.00
7670;BME280;3877;42.562;27.636;2022-07-17T02:08:41;101720.66;;;23.47;100.00
7670;BME280;3877;42.562;27.636;2022-07-17T02:11:08;101725.59;;;23.50;100.00
7670;BME280;3877;42.562;27.636;2022-07-17T02:13:36;101712.41;;;23.42;100.00
7670;BME280;3877;42.562;27.636;2022-07-17T02:16:04;101718.28;;;23.52;100.00
7670;BME280;3877;42.562;27.636;2022-07-17T02:18:32;101731.31;;;23.50;100.00
7670;BME280;3877;42.562;27.636;2022-07-17T02:20:59;101717.59;;;23.33;100.00
7670;BME280;3877;42.562;27.636;2022-07-17T02:23:26;101729.47;;;23.38;100.00
7670;BME280;3877;42.562;27.636;2022-07-17T02:25:53;101732.69;;;23.33;100.00
7670;BME280;3877;42.562;27.636;2022-07-17T02:28:21;101747.44;;;23.35;100.00
7670;BME280;3877;42.562;27.636;2022-07-17T02:30:50;101742.50;;;23.32;100.00
7670;BME280;3877;42.562;27.636;2022-07-17T02:33:17;101744.06;;;23.30;100.00
7670;BME280;3877;42.562;27.636;2022-07-17T02:35:44;101746.59;;;23.35;100.00
7670;BME280;3877;42.562;27.636;2022-07-17T02:38:11;101737.59;;;23.33;100.00
7670;BME280;3877;42.562;27.636;2022-07-17T02:40:38;101748.25;;;23.36;100.00
7670;BME280;3877;42.562;27.636;2022-07-17T02:43:07;101738.31;;;23.26;100.00
7670;BME280;3877;42.562;27.636;2022-07-17T02:45:35;101746.59;;;23.35;100.00
7670;BME280;3877;42.562;27.636;2022-07-17T02:48:04;101751.81;;;23.29;100.00
7670;BME280;3877;42.562;27.636;2022-07-17T02:50:31;101760.47;;;23.33;100.00
7670;BME280;3877;42.562;27.636;2022-07-17T02:52:59;101757.16;;;23.31;100.00
7670;BME280;3877;42.562;27.636;2022-07-17T02:55:26;101757.28;;;23.38;100.00
7670;BME280;3877;42.562;27.636;2022-07-17T02:57:53;101758.97;;;23.42;100.00
7670;BME280;3877;42.562;27.636;2022-07-17T03:00:21;101750.00;;;23.44;100.00
7670;BME280;3877;42.562;27.636;2022-07-17T03:02:48;101760.81;;;23.54;100.00
7670;BME280;3877;42.562;27.636;2022-07-17T03:05:16;101773.91;;;23.55;100.00
7670;BME280;3877;42.562;27.636;2022-07-17T03:07:44;101763.16;;;23.48;100.00
7670;BME280;3877;42.562;27.636;2022-07-17T03:10:12;101780.28;;;23.45;100.00
7670;BME280;3877;42.562;27.636;2022-07-17T03:12:40;101783.16;;;23.45;100.00
7670;BME280;3877;42.562;27.636;2022-07-17T03:15:08;101780.31;;;23.48;100.00
7670;BME280;3877;42.562;27.636;2022-07-17T03:17:36;101782.81;;;23.50;100.00
7670;BME280;3877;42.562;27.636;2022-07-17T03:20:05;101765.59;;;23.46;100.00
7670;BME280;3877;42.562;27.636;2022-07-17T03:22:34;101782.16;;;23.60;100.00
7670;BME280;3877;42.562;27.636;2022-07-17T03:25:02;101778.94;;;23.65;100.00
7670;BME280;3877;42.562;27.636;2022-07-17T03:27:29;101765.50;;;23.69;100.00
7670;BME280;3877;42.562;27.636;2022-07-17T03:29:57;101761.09;;;23.75;100.00
7670;BME280;3877;42.562;27.636;2022-07-17T03:32:24;101759.63;;;23.88;100.00
7670;BME280;3877;42.562;27.636;2022-07-17T03:34:51;101732.66;;;23.89;100.00
7670;BME280;3877;42.562;27.636;2022-07-17T03:37:19;101645.34;;;23.39;100.00
7670;BME280;3877;42.562;27.636;2022-07-17T03:39:47;101719.59;;;23.92;100.00
7670;BME280;3877;42.562;27.636;2022-07-17T03:42:15;101753.56;;;24.27;100.00
7670;BME280;3877;42.562;27.636;2022-07-17T03:44:42;101752.81;;;24.33;100.00
7670;BME280;3877;42.562;27.636;2022-07-17T03:47:10;101748.00;;;24.41;100.00
7670;BME280;3877;42.562;27.636;2022-07-17T03:49:37;101752.16;;;24.47;100.00
7670;BME280;3877;42.562;27.636;2022-07-17T03:52:05;101732.53;;;24.53;100.00
7670;BME280;3877;42.562;27.636;2022-07-17T03:54:32;101752.72;;;24.63;100.00
7670;BME280;3877;42.562;27.636;2022-07-17T03:57:01;101746.56;;;24.61;100.00
7670;BME280;3877;42.562;27.636;2022-07-17T03:59:28;101756.03;;;24.69;100.00
7670;BME280;3877;42.562;27.636;2022-07-17T04:01:56;101752.41;;;24.75;100.00
7670;BME280;3877;42.562;27.636;2022-07-17T04:04:23;101754.19;;;24.91;100.00
7670;BME280;3877;42.562;27.636;2022-07-17T04:06:50;101748.16;;;25.03;100.00
7670;BME280;3877;42.562;27.636;2022-07-17T04:09:17;101739.59;;;25.10;100.00
7670;BME280;3877;42.562;27.636;2022-07-17T04:11:45;101733.03;;;25.09;100.00
7670;BME280;3877;42.562;27.636;2022-07-17T04:14:14;101746.28;;;25.28;100.00
7670;BME280;3877;42.562;27.636;2022-07-17T04:16:41;101745.13;;;25.36;100.00
7670;BME280;3877;42.562;27.636;2022-07-17T04:19:08;101741.88;;;25.45;100.00
7670;BME280;3877;42.562;27.636;2022-07-17T04:21:35;101736.59;;;25.47;100.00
7670;BME280;3877;42.562;27.636;2022-07-17T04:24:03;101743.22;;;25.54;100.00
7670;BME280;3877;42.562;27.636;2022-07-17T04:26:30;101746.41;;;25.46;100.00
7670;BME280;3877;42.562;27.636;2022-07-17T04:28:58;101753.00;;;25.53;100.00
7670;BME280;3877;42.562;27.636;2022-07-17T04:31:27;101736.25;;;25.55;100.00
7670;BME280;3877;42.562;27.636;2022-07-17T04:33:54;101762.16;;;25.69;100.00
7670;BME280;3877;42.562;27.636;2022-07-17T04:36:22;101753.59;;;25.84;100.00
7670;BME280;3877;42.562;27.636;2022-07-17T04:38:49;101755.72;;;26.01;100.00
7670;BME280;3877;42.562;27.636;2022-07-17T04:41:16;101753.31;;;26.21;100.00
7670;BME280;3877;42.562;27.636;2022-07-17T04:43:43;101747.66;;;26.52;100.00
7670;BME280;3877;42.562;27.636;2022-07-17T04:46:10;101739.50;;;26.97;100.00
7670;BME280;3877;42.562;27.636;2022-07-17T04:48:39;101748.00;;;27.71;100.00
7670;BME280;3877;42.562;27.636;2022-07-17T04:51:07;101737.72;;;28.54;100.00
7670;BME280;3877;42.562;27.636;2022-07-17T04:53:34;101735.66;;;29.50;100.00
7670;BME280;3877;42.562;27.636;2022-07-17T04:56:02;101726.31;;;30.04;100.00
7670;BME280;3877;42.562;27.636;2022-07-17T04:58:30;101730.66;;;30.19;100.00
7670;BME280;3877;42.562;27.636;2022-07-17T05:00:57;101743.63;;;30.64;100.00
7670;BME280;3877;42.562;27.636;2022-07-17T05:03:24;101728.63;;;31.19;100.00
7670;BME280;3877;42.562;27.636;2022-07-17T05:05:53;101727.75;;;31.65;100.00
7670;BME280;3877;42.562;27.636;2022-07-17T05:08:20;101730.44;;;31.76;100.00
7670;BME280;3877;42.562;27.636;2022-07-17T05:10:48;101734.69;;;32.11;100.00
7670;BME280;3877;42.562;27.636;2022-07-17T05:13:15;101733.22;;;32.39;100.00
7670;BME280;3877;42.562;27.636;2022-07-17T05:15:42;101743.31;;;32.67;100.00
7670;BME280;3877;42.562;27.636;2022-07-17T05:18:10;101728.63;;;32.90;100.00
7670;BME280;3877;42.562;27.636;2022-07-17T05:20:39;101736.09;;;32.91;100.00
7670;BME280;3877;42.562;27.636;2022-07-17T05:23:08;101752.03;;;32.67;100.00
7670;BME280;3877;42.562;27.636;2022-07-17T05:25:35;101753.06;;;32.40;100.00
7670;BME280;3877;42.562;27.636;2022-07-17T05:28:03;101745.44;;;32.46;100.00
7670;BME280;3877;42.562;27.636;2022-07-17T05:30:30;101751.91;;;32.54;100.00
7670;BME280;3877;42.562;27.636;2022-07-17T05:32:58;101760.22;;;32.52;100.00
7670;BME280;3877;42.562;27.636;2022-07-17T05:35:25;101752.31;;;32.36;100.00
7670;BME280;3877;42.562;27.636;2022-07-17T05:37:52;101748.97;;;32.38;100.00
7670;BME280;3877;42.562;27.636;2022-07-17T05:40:21;101749.28;;;32.60;100.00
7670;BME280;3877;42.562;27.636;2022-07-17T05:42:51;101746.97;;;33.19;100.00
7670;BME280;3877;42.562;27.636;2022-07-17T05:45:18;101756.78;;;33.25;100.00
7670;BME280;3877;42.562;27.636;2022-07-17T05:47:46;101740.91;;;33.59;100.00
7670;BME280;3877;42.562;27.636;2022-07-17T05:50:13;101757.28;;;33.36;100.00
7670;BME280;3877;42.562;27.636;2022-07-17T05:52:40;101753.38;;;33.88;100.00
7670;BME280;3877;42.562;27.636;2022-07-17T05:55:08;101725.00;;;33.92;100.00
7670;BME280;3877;42.562;27.636;2022-07-17T05:57:37;101755.91;;;34.28;100.00
7670;BME280;3877;42.562;27.636;2022-07-17T06:00:05;101753.28;;;34.71;100.00
7670;BME280;3877;42.562;27.636;2022-07-17T06:02:33;101745.06;;;35.04;97.99
7670;BME280;3877;42.562;27.636;2022-07-17T06:05:01;101732.31;;;34.25;75.01
7670;BME280;3877;42.562;27.636;2022-07-17T06:07:29;101754.97;;;33.89;77.55
7670;BME280;3877;42.562;27.636;2022-07-17T06:09:56;101756.38;;;33.39;75.16
7670;BME280;3877;42.562;27.636;2022-07-17T06:12:24;101760.13;;;33.24;79.72
7670;BME280;3877;42.562;27.636;2022-07-17T06:14:52;101754.41;;;33.20;74.80
7670;BME280;3877;42.562;27.636;2022-07-17T06:17:19;101748.41;;;33.27;74.86
7670;BME280;3877;42.562;27.636;2022-07-17T06:19:47;101750.22;;;32.89;73.70
7670;BME280;3877;42.562;27.636;2022-07-17T06:22:17;101762.81;;;32.30;71.53
7670;BME280;3877;42.562;27.636;2022-07-17T06:24:45;101751.78;;;32.41;70.56
7670;BME280;3877;42.562;27.636;2022-07-17T06:27:13;101760.72;;;32.67;71.43
7670;BME280;3877;42.562;27.636;2022-07-17T06:29:40;101751.50;;;32.72;68.29
7670;BME280;3877;42.562;27.636;2022-07-17T06:32:09;101754.59;;;32.81;68.76
7670;BME280;3877;42.562;27.636;2022-07-17T06:34:37;101765.41;;;32.44;67.00
7670;BME280;3877;42.562;27.636;2022-07-17T06:37:04;101763.47;;;32.38;69.67
7670;BME280;3877;42.562;27.636;2022-07-17T06:39:31;101769.47;;;32.11;69.57
7670;BME280;3877;42.562;27.636;2022-07-17T06:41:58;101773.59;;;31.70;71.07
7670;BME280;3877;42.562;27.636;2022-07-17T06:44:26;101765.06;;;31.40;72.90
7670;BME280;3877;42.562;27.636;2022-07-17T06:46:54;101754.81;;;31.55;70.17
7670;BME280;3877;42.562;27.636;2022-07-17T06:49:23;101750.34;;;31.51;71.63
7670;BME280;3877;42.562;27.636;2022-07-17T06:51:50;101758.56;;;31.33;72.84
7670;BME280;3877;42.562;27.636;2022-07-17T06:54:17;101761.31;;;31.20;74.11
7670;BME280;3877;42.562;27.636;2022-07-17T06:56:44;101751.88;;;31.16;75.28
7670;BME280;3877;42.562;27.636;2022-07-17T06:59:12;101764.69;;;31.15;72.14
7670;BME280;3877;42.562;27.636;2022-07-17T07:01:39;101765.19;;;31.33;75.33
7670;BME280;3877;42.562;27.636;2022-07-17T07:04:07;101750.53;;;31.20;72.13
7670;BME280;3877;42.562;27.636;2022-07-17T07:06:36;101768.19;;;31.49;73.63
7670;BME280;3877;42.562;27.636;2022-07-17T07:09:03;101768.47;;;31.35;73.40
7670;BME280;3877;42.562;27.636;2022-07-17T07:11:31;101754.38;;;31.14;73.16
7670;BME280;3877;42.562;27.636;2022-07-17T07:13:58;101774.44;;;31.01;76.86
7670;BME280;3877;42.562;27.636;2022-07-17T07:16:26;101768.31;;;30.96;74.15
7670;BME280;3877;42.562;27.636;2022-07-17T07:18:53;101768.16;;;31.06;78.82
7670;BME280;3877;42.562;27.636;2022-07-17T07:21:20;101780.25;;;31.01;74.22
7670;BME280;3877;42.562;27.636;2022-07-17T07:23:50;101774.81;;;31.03;74.36
7670;BME280;3877;42.562;27.636;2022-07-17T07:26:17;101769.47;;;31.02;79.83
7670;BME280;3877;42.562;27.636;2022-07-17T07:28:44;101771.25;;;31.19;79.58
7670;BME280;3877;42.562;27.636;2022-07-17T07:31:12;101786.09;;;31.21;79.35
7670;BME280;3877;42.562;27.636;2022-07-17T07:33:40;101777.28;;;31.28;79.50
7670;BME280;3877;42.562;27.636;2022-07-17T07:36:07;101787.03;;;31.14;79.37
7670;BME280;3877;42.562;27.636;2022-07-17T07:38:34;101782.56;;;31.33;81.00
7670;BME280;3877;42.562;27.636;2022-07-17T07:41:03;101780.88;;;31.55;79.22
7670;BME280;3877;42.562;27.636;2022-07-17T07:43:31;101782.78;;;31.65;81.94
7670;BME280;3877;42.562;27.636;2022-07-17T07:45:58;101787.59;;;31.06;90.98
7670;BME280;3877;42.562;27.636;2022-07-17T07:48:25;101790.19;;;30.73;92.01
7670;BME280;3877;42.562;27.636;2022-07-17T07:50:52;101788.47;;;30.76;96.86
7670;BME280;3877;42.562;27.636;2022-07-17T07:53:20;101804.63;;;30.43;100.00
7670;BME280;3877;42.562;27.636;2022-07-17T07:55:47;101808.66;;;29.88;100.00
7670;BME280;3877;42.562;27.636;2022-07-17T07:58:15;101808.88;;;29.67;100.00
7670;BME280;3877;42.562;27.636;2022-07-17T08:00:44;101815.66;;;29.50;100.00
7670;BME280;3877;42.562;27.636;2022-07-17T08:03:12;101832.25;;;29.39;100.00
7670;BME280;3877;42.562;27.636;2022-07-17T08:05:39;101827.34;;;29.36;100.00
7670;BME280;3877;42.562;27.636;2022-07-17T08:08:06;101813.69;;;29.40;100.00
7670;BME280;3877;42.562;27.636;2022-07-17T08:10:34;101797.91;;;29.07;100.00
7670;BME280;3877;42.562;27.636;2022-07-17T08:13:01;101830.00;;;29.09;100.00
7670;BME280;3877;42.562;27.636;2022-07-17T08:15:30;101820.16;;;29.06;100.00
7670;BME280;3877;42.562;27.636;2022-07-17T08:17:57;101800.28;;;29.16;100.00
7670;BME280;3877;42.562;27.636;2022-07-17T08:20:25;101815.16;;;29.59;100.00
7670;BME280;3877;42.562;27.636;2022-07-17T08:22:52;101826.13;;;29.74;100.00
7670;BME280;3877;42.562;27.636;2022-07-17T08:25:19;101831.59;;;29.65;100.00
7670;BME280;3877;42.562;27.636;2022-07-17T08:27:47;101846.97;;;29.55;100.00
7670;BME280;3877;42.562;27.636;2022-07-17T08:30:15;101848.97;;;29.58;100.00
7670;BME280;3877;42.562;27.636;2022-07-17T08:32:44;101841.06;;;29.66;100.00
7670;BME280;3877;42.562;27.636;2022-07-17T08:35:11;101831.78;;;29.85;100.00
7670;BME280;3877;42.562;27.636;2022-07-17T08:37:46;101840.59;;;30.12;100.00
7670;BME280;3877;42.562;27.636;2022-07-17T08:40:18;101843.75;;;30.21;100.00
7670;BME280;3877;42.562;27.636;2022-07-17T08:42:46;101838.66;;;30.32;100.00
7670;BME280;3877;42.562;27.636;2022-07-17T08:45:14;101837.69;;;30.42;100.00
7670;BME280;3877;42.562;27.636;2022-07-17T08:47:42;101842.88;;;30.24;100.00
7670;BME280;3877;42.562;27.636;2022-07-17T08:50:12;101811.53;;;30.22;100.00
7670;BME280;3877;42.562;27.636;2022-07-17T08:52:42;101845.13;;;30.43;100.00
7670;BME280;3877;42.562;27.636;2022-07-17T08:55:11;101837.75;;;30.38;100.00
7670;BME280;3877;42.562;27.636;2022-07-17T08:57:39;101842.47;;;30.56;100.00
7670;BME280;3877;42.562;27.636;2022-07-17T09:00:09;101841.78;;;30.75;100.00
7670;BME280;3877;42.562;27.636;2022-07-17T09:02:37;101826.19;;;30.96;100.00
7670;BME280;3877;42.562;27.636;2022-07-17T09:05:07;101813.50;;;31.13;97.91
7670;BME280;3877;42.562;27.636;2022-07-17T09:07:45;101730.25;;;30.47;100.00
7670;BME280;3877;42.562;27.636;2022-07-17T09:10:13;101838.81;;;30.82;100.00
7670;BME280;3877;42.562;27.636;2022-07-17T09:12:41;101825.53;;;30.84;100.00
7670;BME280;3877;42.562;27.636;2022-07-17T09:15:18;101841.53;;;30.93;100.00
7670;BME280;3877;42.562;27.636;2022-07-17T09:17:49;101841.47;;;30.96;100.00
7670;BME280;3877;42.562;27.636;2022-07-17T09:20:18;101846.94;;;30.91;100.00
7670;BME280;3877;42.562;27.636;2022-07-17T09:22:55;101837.34;;;30.94;96.64
7670;BME280;3877;42.562;27.636;2022-07-17T09:25:35;101851.91;;;30.90;100.00
7670;BME280;3877;42.562;27.636;2022-07-17T09:28:05;101834.06;;;31.22;93.18
7670;BME280;3877;42.562;27.636;2022-07-17T09:30:34;101819.19;;;31.20;91.81
7670;BME280;3877;42.562;27.636;2022-07-17T09:33:05;101822.19;;;31.13;90.28
7670;BME280;3877;42.562;27.636;2022-07-17T09:35:35;101834.47;;;30.94;95.41
7670;BME280;3877;42.562;27.636;2022-07-17T09:38:11;101842.78;;;30.92;100.00
7670;BME280;3877;42.562;27.636;2022-07-17T09:40:39;101856.31;;;30.71;100.00
7670;BME280;3877;42.562;27.636;2022-07-17T09:43:38;101846.22;;;30.83;100.00
7670;BME280;3877;42.562;27.636;2022-07-17T09:46:07;101855.25;;;30.89;100.00
7670;BME280;3877;42.562;27.636;2022-07-17T09:48:36;101839.16;;;30.57;100.00
7670;BME280;3877;42.562;27.636;2022-07-17T09:51:10;101852.31;;;30.62;100.00
7670;BME280;3877;42.562;27.636;2022-07-17T09:53:37;101850.72;;;30.57;100.00
7670;BME280;3877;42.562;27.636;2022-07-17T09:56:05;101864.09;;;30.48;100.00
7670;BME280;3877;42.562;27.636;2022-07-17T09:58:35;101856.53;;;30.57;100.00
7670;BME280;3877;42.562;27.636;2022-07-17T10:01:06;101851.69;;;30.47;100.00
7670;BME280;3877;42.562;27.636;2022-07-17T10:03:33;101847.97;;;30.50;100.00
7670;BME280;3877;42.562;27.636;2022-07-17T10:06:01;101846.75;;;30.44;100.00
7670;BME280;3877;42.562;27.636;2022-07-17T10:08:31;101850.72;;;30.57;100.00
7670;BME280;3877;42.562;27.636;2022-07-17T10:11:00;101852.84;;;30.83;100.00
7670;BME280;3877;42.562;27.636;2022-07-17T10:13:28;101849.34;;;30.96;100.00
7670;BME280;3877;42.562;27.636;2022-07-17T10:15:55;101847.06;;;30.83;100.00
7670;BME280;3877;42.562;27.636;2022-07-17T10:18:34;101839.34;;;31.00;100.00
7670;BME280;3877;42.562;27.636;2022-07-17T10:21:09;101845.56;;;31.25;100.00
7670;BME280;3877;42.562;27.636;2022-07-17T10:23:38;101843.75;;;31.35;100.00
7670;BME280;3877;42.562;27.636;2022-07-17T10:26:06;101847.00;;;31.37;100.00
7670;BME280;3877;42.562;27.636;2022-07-17T10:28:41;101835.56;;;31.30;96.40
7670;BME280;3877;42.562;27.636;2022-07-17T10:31:08;101830.53;;;30.80;92.02
7670;BME280;3877;42.562;27.636;2022-07-17T10:33:36;101820.41;;;30.69;90.35
7670;BME280;3877;42.562;27.636;2022-07-17T10:36:04;101835.25;;;30.71;99.48
7670;BME280;3877;42.562;27.636;2022-07-17T10:38:42;101828.63;;;30.70;99.35
7670;BME280;3877;42.562;27.636;2022-07-17T10:41:19;101842.50;;;30.82;99.05
7670;BME280;3877;42.562;27.636;2022-07-17T10:43:48;101823.34;;;30.92;100.00
7670;BME280;3877;42.562;27.636;2022-07-17T10:46:15;101822.03;;;30.70;99.01
7670;BME280;3877;42.562;27.636;2022-07-17T10:48:47;101830.13;;;30.55;100.00
7670;BME280;3877;42.562;27.636;2022-07-17T10:51:15;101832.50;;;30.30;100.00
7670;BME280;3877;42.562;27.636;2022-07-17T10:53:44;101823.91;;;30.23;100.00
7670;BME280;3877;42.562;27.636;2022-07-17T10:56:12;101834.63;;;30.26;99.95
7670;BME280;3877;42.562;27.636;2022-07-17T10:58:42;101827.88;;;30.36;100.00
7670;BME280;3877;42.562;27.636;2022-07-17T11:01:12;101830.13;;;30.55;100.00
7670;BME280;3877;42.562;27.636;2022-07-17T11:03:41;101828.63;;;30.70;100.00
7670;BME280;3877;42.562;27.636;2022-07-17T11:06:14;101835.41;;;30.87;100.00
7670;BME280;3877;42.562;27.636;2022-07-17T11:08:44;101827.81;;;30.97;100.00
7670;BME280;3877;42.562;27.636;2022-07-17T11:11:12;101844.22;;;31.07;100.00
7670;BME280;3877;42.562;27.636;2022-07-17T11:13:40;101825.88;;;31.17;100.00
7670;BME280;3877;42.562;27.636;2022-07-17T11:16:07;101839.53;;;31.40;100.00
7670;BME280;3877;42.562;27.636;2022-07-17T11:18:35;101830.59;;;31.31;100.00
7670;BME280;3877;42.562;27.636;2022-07-17T11:21:04;101809.13;;;31.28;99.54
7670;BME280;3877;42.562;27.636;2022-07-17T11:23:32;101829.09;;;31.46;99.51
7670;BME280;3877;42.562;27.636;2022-07-17T11:26:03;101821.34;;;31.62;100.00
7670;BME280;3877;42.562;27.636;2022-07-17T11:28:33;101813.94;;;31.81;100.00
7670;BME280;3877;42.562;27.636;2022-07-17T11:31:05;101814.03;;;31.78;100.00
7670;BME280;3877;42.562;27.636;2022-07-17T11:33:47;101820.09;;;32.03;100.00
7670;BME280;3877;42.562;27.636;2022-07-17T11:36:20;101822.69;;;31.58;99.18
7670;BME280;3877;42.562;27.636;2022-07-17T11:38:47;101820.28;;;31.30;100.00
7670;BME280;3877;42.562;27.636;2022-07-17T11:41:17;101822.97;;;31.40;100.00
7670;BME280;3877;42.562;27.636;2022-07-17T11:43:45;101822.09;;;31.43;100.00
7670;BME280;3877;42.562;27.636;2022-07-17T11:46:14;101790.66;;;31.42;100.00
7670;BME280;3877;42.562;27.636;2022-07-17T11:48:42;101819.69;;;31.61;97.12
7670;BME280;3877;42.562;27.636;2022-07-17T11:51:10;101815.53;;;31.39;96.86
7670;BME280;3877;42.562;27.636;2022-07-17T11:53:39;101818.19;;;31.30;94.57
7670;BME280;3877;42.562;27.636;2022-07-17T11:56:07;101809.88;;;31.32;96.13
7670;BME280;3877;42.562;27.636;2022-07-17T11:58:44;101808.50;;;31.40;96.48
7670;BME280;3877;42.562;27.636;2022-07-17T12:01:12;101811.00;;;31.38;100.00
7670;BME280;3877;42.562;27.636;2022-07-17T12:03:40;101820.84;;;31.44;100.00
7670;BME280;3877;42.562;27.636;2022-07-17T12:06:08;101812.06;;;31.48;100.00
7670;BME280;3877;42.562;27.636;2022-07-17T12:08:36;101827.47;;;31.18;100.00
7670;BME280;3877;42.562;27.636;2022-07-17T12:11:05;101811.06;;;31.11;100.00
7670;BME280;3877;42.562;27.636;2022-07-17T12:13:45;101826.47;;;31.05;100.00
7670;BME280;3877;42.562;27.636;2022-07-17T12:16:21;101821.78;;;30.88;100.00
7670;BME280;3877;42.562;27.636;2022-07-17T12:19:13;101822.19;;;30.86;100.00
7670;BME280;3877;42.562;27.636;2022-07-17T12:21:49;101823.78;;;30.91;100.00
7670;BME280;3877;42.562;27.636;2022-07-17T12:24:21;101811.22;;;31.01;100.00
7670;BME280;3877;42.562;27.636;2022-07-17T12:26:49;101810.19;;;30.88;100.00
7670;BME280;3877;42.562;27.636;2022-07-17T12:29:19;101825.53;;;30.84;100.00
7670;BME280;3877;42.562;27.636;2022-07-17T12:31:46;101828.81;;;30.87;100.00
7670;BME280;3877;42.562;27.636;2022-07-17T12:34:14;101823.03;;;30.87;100.00
7670;BME280;3877;42.562;27.636;2022-07-17T12:36:41;101832.00;;;30.65;100.00
7670;BME280;3877;42.562;27.636;2022-07-17T12:39:08;101828.47;;;30.54;100.00
7670;BME280;3877;42.562;27.636;2022-07-17T12:41:37;101839.06;;;30.64;100.00
7670;BME280;3877;42.562;27.636;2022-07-17T12:44:04;101833.28;;;30.64;100.00
7670;BME280;3877;42.562;27.636;2022-07-17T12:46:33;101833.03;;;30.52;100.00
7670;BME280;3877;42.562;27.636;2022-07-17T12:49:00;101826.22;;;30.05;100.00
7670;BME280;3877;42.562;27.636;2022-07-17T12:51:27;101830.75;;;30.06;100.00
7670;BME280;3877;42.562;27.636;2022-07-17T12:53:55;101836.44;;;30.13;100.00
7670;BME280;3877;42.562;27.636;2022-07-17T12:56:23;101834.97;;;29.97;100.00
7670;BME280;3877;42.562;27.636;2022-07-17T12:58:52;101827.56;;;29.96;100.00